To NAV CANADA Home Page Login to a new session Search on AWWS site Feedback and Comments Disclaimer Vers la page française équivalente Tips FAQ What's new on the site To the Forecasts and Observations / NOTAM section To "File a Flight Plan" website Publications and other links Update of the User's profile FIC Telephone Numbers My Weather Data Folder Route Weather Data Regional Weather Data Local Weather Data To the Forecasts and Observations / NOTAM section
Request Generated 05/26/2017 at 05:22:04 UTC . Weather information available at that time is displayed.

METAR/TAF

CRANBROOK/CANADIAN ROCKIES INTL/BC    

METAR CYXC 260500Z 20006KT 180V240 25SM FEW120 FEW180 08/05 A2989 RMK
AC1AC1 SLP132=
METAR CYXC 260400Z 27005KT 210V280 25SM VCSH SCT055CB BKN130 BKN240
11/04 A2988 RMK CB3AC2CI1 SLP125 DENSITY ALT 3300FT=
METAR CYXC 260300Z 33005KT 240V360 25SM -SHRA SCT055TCU BKN090 BKN200
12/03 A2987 RMK TCU4AC1CI1 SLP124 DENSITY ALT 3500FT=

TAF CYXC 260038Z 2601/2613 29007KT P6SM FEW050 SCT080 TEMPO 2601/2608
VRB15G25KT P6SM -SHRA BKN080 PROB30 2601/2607 VRB15G25KT 5SM
TSRA BKN050CB
FM260800 VRB03KT P6SM SCT015 BKN050
RMK NXT FCST BY 260700Z=
Your time UTC time
Weather data provided by Environment Canada and NAV CANADA